Time;durP1;ratioP1;P1;durP2;ratioP2;P2;SDS_P1;SDS_P2;PMS_P1;PMS_P2;Temp;Humidity;BMP_temperature;BMP_pressure;BME280_temperature;BME280_humidity;BME280_pressure;Samples;Min_cycle;Max_cycle;Signal;HPM_P1;HPM_P2
2023/08/28 00:01:28;;;;;;;4.28;0.60;;;;;;;22.11;46.64;101129.56;16115701;19;129502;-60
2023/08/28 00:06:52;;;;;;;2.08;0.60;;;;;;;22.10;47.27;101116.75;16116718;19;129744;-61
2023/08/28 00:12:15;;;;;;;5.25;0.90;;;;;;;22.09;46.91;101115.06;16115698;19;130438;-61
2023/08/28 00:17:37;;;;;;;3.55;1.33;;;;;;;22.08;46.97;101123.72;16110404;19;130547;-61
2023/08/28 00:22:59;;;;;;;1.30;0.50;;;;;;;22.08;47.13;101120.91;16113988;19;129283;-61
2023/08/28 00:28:22;;;;;;;2.13;0.65;;;;;;;22.06;47.18;101111.97;16108268;19;130801;-61
2023/08/28 00:33:44;;;;;;;2.35;0.70;;;;;;;22.05;47.09;101111.13;16113040;19;130318;-61
2023/08/28 00:39:06;;;;;;;4.03;0.77;;;;;;;22.04;47.13;101103.88;16109929;19;129243;-61
2023/08/28 00:44:28;;;;;;;2.00;0.57;;;;;;;22.04;47.18;101103.88;16111648;19;130527;-61
2023/08/28 00:49:50;;;;;;;1.65;0.45;;;;;;;22.02;46.89;101108.88;16106614;19;130720;-61
2023/08/28 00:55:12;;;;;;;2.25;0.80;;;;;;;22.01;46.85;101112.78;16111376;19;129666;-61
2023/08/28 01:00:34;;;;;;;1.38;0.65;;;;;;;22.01;47.05;101118.34;16108728;19;129421;-61
2023/08/28 01:06:11;;;;;;;3.55;0.50;;;;;;;22.02;47.55;101110.81;16112290;19;130193;-61
2023/08/28 01:11:42;;;;;;;2.47;0.50;;;;;;;22.01;47.25;101104.41;16111528;19;129874;-61
2023/08/28 01:17:06;;;;;;;1.23;0.65;;;;;;;21.99;47.23;101098.28;16114122;19;130523;-61
2023/08/28 01:22:35;;;;;;;1.20;0.60;;;;;;;21.98;46.97;101091.00;16109383;19;131158;-61
2023/08/28 01:27:58;;;;;;;2.15;0.55;;;;;;;21.98;47.29;101104.94;16107378;19;130713;-62
2023/08/28 01:33:21;;;;;;;2.97;0.60;;;;;;;21.95;47.33;101086.81;16108422;19;130307;-60
2023/08/28 01:38:51;;;;;;;0.75;0.40;;;;;;;21.96;47.54;101082.06;16101148;19;130383;-61
2023/08/28 01:44:14;;;;;;;2.55;0.60;;;;;;;21.94;47.40;101087.06;16107080;19;129609;-61
2023/08/28 01:49:36;;;;;;;3.30;0.40;;;;;;;21.93;47.09;101079.81;16110548;19;129571;-61
2023/08/28 01:54:59;;;;;;;1.27;0.47;;;;;;;21.92;47.29;101083.69;16106319;19;131492;-61
2023/08/28 02:00:21;;;;;;;1.85;0.50;;;;;;;21.91;47.64;101077.31;16106591;19;130415;-60
2023/08/28 02:05:43;;;;;;;1.95;0.50;;;;;;;21.92;47.42;101080.91;16108214;19;131030;-61
2023/08/28 02:11:05;;;;;;;1.05;0.70;;;;;;;21.89;47.82;101068.38;16105154;19;129658;-61
2023/08/28 02:16:27;;;;;;;3.13;0.52;;;;;;;21.90;47.40;101069.22;16103093;19;130391;-61
2023/08/28 02:21:49;;;;;;;1.55;0.63;;;;;;;21.90;47.35;101063.66;16105388;19;129702;-61
2023/08/28 02:27:11;;;;;;;0.30;0.30;;;;;;;21.88;47.64;101065.88;16106764;19;129937;-61
2023/08/28 02:32:33;;;;;;;0.93;0.50;;;;;;;21.88;47.64;101057.50;16108020;19;131259;-62
2023/08/28 02:37:55;;;;;;;1.38;0.50;;;;;;;21.86;47.80;101062.50;16105859;19;131312;-61
2023/08/28 02:43:17;;;;;;;1.63;0.47;;;;;;;21.86;47.25;101063.31;16105624;19;131308;-61
2023/08/28 02:48:39;;;;;;;0.60;0.30;;;;;;;21.84;47.31;101065.56;16113357;19;130098;-61
2023/08/28 02:54:00;;;;;;;0.82;0.40;;;;;;;21.84;47.80;101071.13;16120171;19;131163;-61
2023/08/28 02:59:22;;;;;;;2.20;0.60;;;;;;;21.84;47.57;101062.78;16121740;19;132593;-63
2023/08/28 03:04:44;;;;;;;1.55;0.50;;;;;;;21.82;47.88;101074.16;16118899;19;130558;-62
2023/08/28 03:10:08;;;;;;;1.10;0.55;;;;;;;21.82;47.33;101074.16;16118775;19;131402;-61
2023/08/28 03:15:33;;;;;;;1.33;0.40;;;;;;;21.82;47.31;101081.69;16120022;19;129836;-61
2023/08/28 03:20:55;;;;;;;;;;;;;;;21.77;47.54;101074.13;16120228;19;130376;-61
2023/08/28 03:26:17;;;;;;;0.55;0.30;;;;;;;21.79;47.43;101085.81;16116681;19;130020;-62
2023/08/28 03:31:39;;;;;;;1.23;0.43;;;;;;;21.78;47.56;101098.09;16117971;19;130977;-62
2023/08/28 03:37:01;;;;;;;1.88;0.38;;;;;;;21.78;47.69;101109.22;16114655;19;130627;-63
2023/08/28 03:42:23;;;;;;;1.75;0.40;;;;;;;21.78;47.44;101116.72;16116944;19;130341;-62
2023/08/28 03:47:45;;;;;;;1.02;0.40;;;;;;;21.77;47.94;101121.47;16117191;19;131846;-62
2023/08/28 03:53:07;;;;;;;1.23;0.43;;;;;;;21.77;48.05;101124.25;16113423;19;129513;-62
2023/08/28 03:58:29;;;;;;;0.90;0.30;;;;;;;21.77;47.71;101131.75;16116289;19;129759;-62
2023/08/28 04:03:51;;;;;;;1.50;0.47;;;;;;;21.76;48.04;101139.28;16114850;19;131237;-61
2023/08/28 04:09:14;;;;;;;0.55;0.30;;;;;;;21.76;47.78;101136.50;16116607;19;132318;-61
2023/08/28 04:14:36;;;;;;;0.73;0.30;;;;;;;21.75;47.60;101134.81;16119018;19;131013;-61
2023/08/28 04:19:58;;;;;;;0.98;0.30;;;;;;;21.76;47.85;101146.78;16116037;19;130806;-61
2023/08/28 04:25:20;;;;;;;1.95;0.30;;;;;;;21.75;48.02;101134.81;16118786;19;135363;-61
2023/08/28 04:30:42;;;;;;;0.73;0.30;;;;;;;21.75;47.88;101136.75;16119857;19;130791;-62
2023/08/28 04:36:04;;;;;;;2.15;0.68;;;;;;;21.74;48.07;101144.25;16118432;19;130727;-61
2023/08/28 04:41:26;;;;;;;1.08;0.30;;;;;;;21.74;47.84;101135.06;16116894;19;129812;-63
2023/08/28 04:46:49;;;;;;;0.57;0.30;;;;;;;21.73;47.83;101144.50;16120432;19;130628;-64
2023/08/28 04:52:10;;;;;;;1.00;0.30;;;;;;;21.72;48.13;101124.19;16123702;19;130430;-64
2023/08/28 04:57:32;;;;;;;1.77;0.40;;;;;;;21.72;47.85;101124.19;16128100;19;130841;-68
2023/08/28 05:02:55;;;;;;;0.65;0.30;;;;;;;21.71;47.86;101114.16;16180147;19;129242;-61
2023/08/28 05:08:17;;;;;;;0.77;0.40;;;;;;;21.71;47.90;101116.13;16188146;19;128846;-61
2023/08/28 05:13:39;;;;;;;3.30;0.45;;;;;;;21.70;47.81;101123.59;16182169;19;131315;-61
2023/08/28 05:19:01;;;;;;;0.28;0.28;;;;;;;21.71;47.82;101121.69;16181418;19;128757;-68
2023/08/28 05:24:23;;;;;;;0.65;0.20;;;;;;;21.71;47.69;101119.72;16193565;19;128625;-68
2023/08/28 05:29:46;;;;;;;0.47;0.30;;;;;;;21.72;47.81;101118.63;16191924;19;131008;-66
2023/08/28 05:35:09;;;;;;;0.55;0.30;;;;;;;21.72;47.96;101115.84;16192459;19;128254;-67
2023/08/28 05:40:31;;;;;;;1.30;0.57;;;;;;;21.70;47.60;101118.03;16189121;19;130216;-67
2023/08/28 05:45:53;;;;;;;0.40;0.30;;;;;;;21.71;47.93;101116.94;16190093;19;129206;-67
2023/08/28 05:51:15;;;;;;;1.33;0.35;;;;;;;21.70;47.94;101112.47;16185895;19;128243;-68
2023/08/28 05:56:40;;;;;;;0.95;0.52;;;;;;;21.71;47.91;101127.25;16186940;19;133432;-67
2023/08/28 06:02:03;;;;;;;2.10;0.50;;;;;;;21.70;48.10;101120.81;16184048;19;128809;-67
2023/08/28 06:07:25;;;;;;;0.57;0.30;;;;;;;21.70;47.68;101131.97;16189680;19;129161;-68
2023/08/28 06:12:47;;;;;;;2.90;0.45;;;;;;;21.69;47.64;101119.13;16184487;19;128381;-68
2023/08/28 06:18:09;;;;;;;2.88;0.30;;;;;;;21.71;48.10;101122.50;16189167;19;129167;-68
2023/08/28 06:23:31;;;;;;;0.40;0.30;;;;;;;21.71;47.62;101122.50;16194174;19;129661;-68
2023/08/28 06:28:52;;;;;;;0.88;0.30;;;;;;;21.71;47.98;101122.50;16209801;19;129708;-68
2023/08/28 06:34:14;;;;;;;1.08;0.40;;;;;;;21.72;48.13;101123.38;16209543;19;128999;-68
2023/08/28 06:39:37;;;;;;;0.52;0.22;;;;;;;21.72;47.82;101113.06;16166326;19;129685;-69
2023/08/28 06:44:59;;;;;;;1.85;0.40;;;;;;;21.73;48.06;101128.66;16193956;19;128988;-68
2023/08/28 06:50:22;;;;;;;2.70;0.30;;;;;;;21.73;48.07;101125.03;16159673;19;129794;-68
2023/08/28 06:55:44;;;;;;;5.13;0.30;;;;;;;21.73;48.15;101137.00;16132661;19;130113;-69
2023/08/28 07:01:06;;;;;;;1.45;0.50;;;;;;;21.75;47.99;101140.38;16129590;19;131143;-69
2023/08/28 07:06:28;;;;;;;0.80;0.30;;;;;;;21.74;48.12;101144.25;16123992;19;129563;-70
2023/08/28 07:11:50;;;;;;;0.63;0.30;;;;;;;21.76;47.92;101142.06;16122379;19;130239;-68
2023/08/28 07:17:12;;;;;;;8.18;0.40;;;;;;;21.77;47.88;101148.47;16123841;19;129692;-69
2023/08/28 07:22:35;;;;;;;0.88;0.35;;;;;;;21.79;47.75;101144.31;16118865;19;129838;-69
2023/08/28 07:27:57;;;;;;;1.13;0.32;;;;;;;21.82;47.74;101141.00;16122333;19;129639;-70
2023/08/28 07:33:19;;;;;;;2.40;0.52;;;;;;;21.90;47.81;101147.22;16117202;19;129439;-67
2023/08/28 07:38:43;;;;;;;7.03;1.23;;;;;;;21.92;47.64;101142.19;16121103;19;129996;-67
2023/08/28 07:44:05;;;;;;;6.38;0.47;;;;;;;21.94;47.72;101151.13;16122120;19;130378;-68
2023/08/28 07:49:27;;;;;;;5.28;0.50;;;;;;;21.96;47.59;101154.50;16115889;19;131288;-67
2023/08/28 07:54:49;;;;;;;2.28;0.47;;;;;;;21.97;47.62;101157.00;16119796;19;129896;-68
2023/08/28 08:00:13;;;;;;;2.35;0.60;;;;;;;22.01;47.30;101160.13;16114662;19;130666;-68
2023/08/28 08:05:36;;;;;;;3.33;0.80;;;;;;;22.04;47.19;101165.16;16114670;19;129752;-69
2023/08/28 08:10:58;;;;;;;1.90;0.68;;;;;;;22.08;47.13;101160.75;16109386;19;130593;-68
2023/08/28 08:16:20;;;;;;;4.70;0.65;;;;;;;22.10;47.20;101161.34;16108505;19;129839;-68
2023/08/28 08:21:42;;;;;;;5.40;0.80;;;;;;;22.12;47.29;101166.63;16115770;19;131885;-69
2023/08/28 08:27:04;;;;;;;2.50;0.60;;;;;;;22.12;47.17;101159.13;16115774;19;130851;-68
2023/08/28 08:32:26;;;;;;;5.03;0.70;;;;;;;22.11;47.46;101149.09;16115385;19;130271;-68
2023/08/28 08:37:52;;;;;;;0.75;0.40;;;;;;;22.12;47.14;101161.91;16108212;19;132911;-67
2023/08/28 08:43:14;;;;;;;5.63;1.13;;;;;;;22.09;47.07;101156.03;16109460;19;132555;-71
2023/08/28 08:48:39;;;;;;;5.13;1.15;;;;;;;22.08;46.67;101157.13;16112792;19;130263;-60
2023/08/28 08:54:31;;;;;;;6.05;1.23;;;;;;;22.10;47.15;101160.47;16110674;19;131542;-62
2023/08/28 08:59:53;;;;;;;12.15;1.55;;;;;;;22.08;47.08;101160.75;16109620;19;130278;-64
2023/08/28 09:05:16;;;;;;;4.80;1.10;;;;;;;22.09;47.14;101162.44;16111221;19;132263;-50
2023/08/28 09:10:38;;;;;;;6.55;1.30;;;;;;;22.14;47.11;101153.28;16114694;19;129486;-56
2023/08/28 09:16:00;;;;;;;11.25;1.00;;;;;;;22.16;47.41;101153.00;16112077;19;130675;-55
2023/08/28 09:21:22;;;;;;;9.95;1.00;;;;;;;22.19;47.28;101149.69;16114946;19;129883;-55
2023/08/28 09:26:51;;;;;;;11.45;1.15;;;;;;;22.22;47.40;101149.19;16116398;19;129880;-59
2023/08/28 09:32:14;;;;;;;3.35;1.08;;;;;;;22.23;47.50;101150.88;16118546;19;129822;-57
2023/08/28 09:37:36;;;;;;;5.85;1.30;;;;;;;22.25;47.13;101154.25;16120134;19;129741;-54
2023/08/28 09:42:59;;;;;;;5.70;1.30;;;;;;;22.27;47.43;101152.88;16116282;19;130715;-56
2023/08/28 09:48:24;;;;;;;4.93;1.00;;;;;;;22.29;47.70;101158.16;16117385;19;129675;-62
2023/08/28 09:53:58;;;;;;;6.57;1.00;;;;;;;22.33;47.72;101173.25;16098465;19;130979;-58
2023/08/28 09:59:20;;;;;;;2.53;1.10;;;;;;;22.33;47.35;101173.25;16120067;19;134878;-62
2023/08/28 10:04:44;;;;;;;7.90;1.08;;;;;;;22.34;47.56;101161.00;16132239;19;130340;-60
2023/08/28 10:10:10;;;;;;;6.55;1.00;;;;;;;22.34;47.15;101172.16;16134096;19;131155;-60
2023/08/28 10:15:33;;;;;;;7.72;1.02;;;;;;;22.37;47.06;101165.19;16125085;19;129614;-57
2023/08/28 10:20:57;;;;;;;7.53;1.00;;;;;;;22.36;47.06;101166.31;16130368;19;131494;-53
2023/08/28 10:26:20;;;;;;;6.50;1.10;;;;;;;22.36;47.21;101156.00;16122881;19;129731;-56
2023/08/28 10:31:43;;;;;;;3.88;0.98;;;;;;;22.39;46.95;101161.06;16125164;19;130686;-55
2023/08/28 10:37:07;;;;;;;4.30;0.65;;;;;;;22.39;46.78;101161.06;16128208;19;130015;-51
2023/08/28 10:42:48;;;;;;;3.72;0.70;;;;;;;22.39;46.93;101154.63;16126387;19;130387;-54
2023/08/28 10:48:10;;;;;;;5.55;1.05;;;;;;;22.36;46.93;101146.78;16125317;19;131412;-52
2023/08/28 10:53:33;;;;;;;2.13;0.90;;;;;;;22.37;46.58;101146.53;16124166;19;130806;-54
2023/08/28 10:59:17;;;;;;;5.47;1.00;;;;;;;22.38;46.47;101156.59;16118874;19;130966;-55
2023/08/28 11:04:40;;;;;;;2.83;0.80;;;;;;;22.37;46.69;101154.06;16123331;19;129938;-54
2023/08/28 11:10:28;;;;;;;5.43;1.00;;;;;;;22.37;46.65;101149.34;16123312;19;129727;-54
2023/08/28 11:16:02;;;;;;;3.20;0.70;;;;;;;22.38;46.51;101152.94;16121698;19;130135;-55
2023/08/28 11:21:24;;;;;;;3.05;1.10;;;;;;;22.35;46.50;101150.69;16125974;19;130670;-56
2023/08/28 11:26:46;;;;;;;3.60;0.70;;;;;;;22.38;46.23;101144.59;16125879;19;130048;-56
2023/08/28 11:32:09;;;;;;;3.60;0.80;;;;;;;22.39;46.62;101138.75;16118231;19;129637;-56
2023/08/28 11:37:33;;;;;;;3.25;0.60;;;;;;;22.40;46.50;101145.16;16119734;19;130322;-50
2023/08/28 11:43:08;;;;;;;3.83;0.98;;;;;;;22.42;46.44;101138.19;16120176;19;130837;-53
2023/08/28 11:48:37;;;;;;;6.57;1.35;;;;;;;22.42;46.45;101143.78;16122391;19;130435;-54
2023/08/28 11:53:59;;;;;;;2.25;0.90;;;;;;;22.42;46.38;101138.19;16122365;19;129519;-53
2023/08/28 11:59:21;;;;;;;2.60;1.13;;;;;;;22.44;46.38;101141.56;16118943;19;129599;-55
2023/08/28 12:04:48;;;;;;;1.85;0.60;;;;;;;22.47;46.41;101133.78;16121999;19;130078;-55
2023/08/28 12:10:13;;;;;;;3.00;0.75;;;;;;;22.48;46.45;101130.72;16122656;19;130785;-54
2023/08/28 12:15:35;;;;;;;;;;;;;;;22.47;46.49;101139.34;16122797;19;131629;-57
2023/08/28 12:21:03;;;;;;;1.55;0.68;;;;;;;22.52;46.47;101142.19;16119067;19;130525;-58
2023/08/28 12:26:25;;;;;;;3.10;0.65;;;;;;;22.51;46.25;101152.50;16118667;19;130516;-56
2023/08/28 12:31:48;;;;;;;2.30;0.60;;;;;;;22.52;46.56;101153.34;16113321;19;132067;-55
2023/08/28 12:37:11;;;;;;;3.05;0.63;;;;;;;22.54;46.59;101156.69;16116385;19;129618;-53
2023/08/28 12:42:38;;;;;;;2.10;0.70;;;;;;;22.55;46.59;101152.78;16119386;19;130268;-54
2023/08/28 12:48:02;;;;;;;3.35;0.70;;;;;;;22.56;46.33;101148.91;16118192;19;130955;-52
2023/08/28 12:53:24;;;;;;;1.77;0.70;;;;;;;22.55;46.64;101148.06;16118166;19;129994;-57
2023/08/28 12:58:47;;;;;;;2.30;0.88;;;;;;;22.58;46.24;101149.47;16118726;19;130000;-55
2023/08/28 13:04:09;;;;;;;2.10;0.80;;;;;;;22.57;46.81;101153.38;16112585;19;129672;-58
2023/08/28 13:09:31;;;;;;;1.55;0.60;;;;;;;22.56;46.67;101148.91;16112501;19;130056;-52
2023/08/28 13:14:53;;;;;;;1.95;0.80;;;;;;;22.55;46.66;101150.88;16109360;19;130231;-57
2023/08/28 13:20:17;;;;;;;2.75;0.73;;;;;;;22.54;46.39;101148.31;16112135;19;130629;-61
2023/08/28 13:25:40;;;;;;;1.15;0.60;;;;;;;22.54;46.74;101148.31;16113117;19;129521;-56
2023/08/28 13:31:02;;;;;;;1.98;0.70;;;;;;;22.53;46.72;101147.50;16115910;19;130540;-58
2023/08/28 13:36:24;;;;;;;2.60;0.70;;;;;;;22.54;46.85;101142.75;16116126;19;129342;-58
2023/08/28 13:41:48;;;;;;;1.70;0.60;;;;;;;22.53;46.56;101143.84;16118141;19;130047;-58
2023/08/28 13:47:10;;;;;;;1.25;0.68;;;;;;;22.52;46.87;101145.00;16119038;19;130906;-59
2023/08/28 13:52:32;;;;;;;1.88;0.70;;;;;;;22.51;46.77;101138.56;16117861;19;130392;-58
2023/08/28 13:57:54;;;;;;;1.58;0.57;;;;;;;22.51;46.52;101157.25;16117826;19;129888;-55
2023/08/28 14:03:16;;;;;;;1.63;0.60;;;;;;;22.49;46.84;101153.88;16106868;19;129275;-54
2023/08/28 14:08:38;;;;;;;1.48;0.57;;;;;;;22.48;46.46;101163.34;16110834;19;130156;-56
2023/08/28 14:14:00;;;;;;;4.88;1.25;;;;;;;22.47;46.69;101172.81;16113018;19;129430;-59
2023/08/28 14:19:23;;;;;;;3.63;0.75;;;;;;;22.45;46.91;101175.88;16116502;19;130789;-57
2023/08/28 14:24:45;;;;;;;1.63;0.75;;;;;;;22.42;46.82;101171.66;16114521;19;130424;-58
2023/08/28 14:30:07;;;;;;;2.45;0.60;;;;;;;22.41;47.07;101171.94;16111328;19;130796;-59
2023/08/28 14:35:29;;;;;;;2.88;0.63;;;;;;;22.37;46.77;101162.41;16108768;19;132251;-58
2023/08/28 14:40:52;;;;;;;1.98;0.65;;;;;;;22.34;46.62;101158.22;16100497;19;131018;-59
2023/08/28 14:46:14;;;;;;;1.83;0.70;;;;;;;22.32;46.93;101163.22;16121185;19;130366;-58
2023/08/28 14:51:36;;;;;;;2.85;0.75;;;;;;;22.31;46.99;101161.53;16127213;19;129723;-57
2023/08/28 14:56:58;;;;;;;2.85;0.73;;;;;;;22.29;47.05;101169.31;16129011;19;130276;-59
2023/08/28 15:02:22;;;;;;;1.48;0.52;;;;;;;22.29;46.94;101158.16;16125753;19;130421;-59
2023/08/28 15:07:44;;;;;;;2.47;0.60;;;;;;;22.28;47.01;101164.84;16122141;19;130453;-59
2023/08/28 15:13:06;;;;;;;2.25;0.82;;;;;;;22.26;47.02;101164.28;16119269;19;129726;-59
2023/08/28 15:18:28;;;;;;;2.42;0.90;;;;;;;22.25;47.32;101170.97;16116164;19;130814;-59
2023/08/28 15:23:50;;;;;;;2.45;0.80;;;;;;;22.22;46.94;101177.91;16118789;19;130264;-59
2023/08/28 15:29:12;;;;;;;2.40;0.70;;;;;;;22.19;46.96;101178.41;16120720;19;129528;-59
2023/08/28 15:34:34;;;;;;;6.50;1.13;;;;;;;22.17;47.25;101182.56;16118562;19;130145;-59
2023/08/28 15:39:56;;;;;;;7.82;1.65;;;;;;;22.16;47.33;101178.06;16120205;19;129758;-60
2023/08/28 15:45:18;;;;;;;13.93;1.85;;;;;;;22.15;46.82;101185.59;16122013;19;130217;-59
2023/08/28 15:50:40;;;;;;;8.07;1.60;;;;;;;22.15;47.12;101190.34;16121509;19;133937;-60
2023/08/28 15:56:02;;;;;;;9.18;1.52;;;;;;;22.14;47.31;101192.28;16119120;19;130298;-59
2023/08/28 16:01:24;;;;;;;10.70;1.95;;;;;;;22.16;47.25;101186.44;16119640;19;130146;-59
2023/08/28 16:06:46;;;;;;;8.35;1.50;;;;;;;22.13;47.14;101190.59;16120857;19;129808;-59
2023/08/28 16:12:08;;;;;;;7.15;1.80;;;;;;;22.12;47.41;101189.78;16114572;19;131309;-60
2023/08/28 16:17:30;;;;;;;13.25;2.00;;;;;;;22.13;47.06;101190.59;16119114;19;131242;-60
2023/08/28 16:22:52;;;;;;;8.60;1.20;;;;;;;22.12;47.46;101195.34;16111235;19;130344;-60
2023/08/28 16:28:14;;;;;;;5.82;1.50;;;;;;;22.13;47.33;101196.19;16113132;19;129668;-59
2023/08/28 16:33:36;;;;;;;8.35;1.55;;;;;;;22.12;47.36;101192.56;16112481;19;131054;-59
2023/08/28 16:38:58;;;;;;;4.63;1.20;;;;;;;22.11;47.41;101193.66;16109456;19;130143;-59
2023/08/28 16:44:23;;;;;;;9.80;1.57;;;;;;;22.11;47.34;101192.81;16111890;19;131005;-59
2023/08/28 16:49:45;;;;;;;5.22;1.35;;;;;;;22.11;47.32;101193.66;16116401;19;130755;-60
2023/08/28 16:55:07;;;;;;;7.50;1.35;;;;;;;22.10;47.36;101183.63;16114899;19;129742;-59
2023/08/28 17:00:33;;;;;;;6.72;1.52;;;;;;;22.07;47.32;101181.34;16117044;19;129972;-59
2023/08/28 17:05:56;;;;;;;5.28;1.50;;;;;;;22.08;47.14;101182.22;16115291;19;129688;-59
2023/08/28 17:11:18;;;;;;;13.18;1.90;;;;;;;22.06;47.65;101185.25;16111813;19;130833;-60
2023/08/28 17:16:40;;;;;;;10.45;1.65;;;;;;;22.05;47.81;101191.09;16115946;19;132567;-60
2023/08/28 17:22:03;;;;;;;10.10;1.77;;;;;;;22.05;47.48;101202.22;16116150;19;130128;-60
2023/08/28 17:27:25;;;;;;;8.15;1.10;;;;;;;22.06;47.59;101206.69;16116791;19;129294;-60
2023/08/28 17:32:48;;;;;;;8.77;1.52;;;;;;;22.03;47.49;101213.63;16114133;19;129719;-60
2023/08/28 17:38:10;;;;;;;6.50;1.40;;;;;;;22.02;47.63;101209.19;16111249;19;129715;-60
2023/08/28 17:43:32;;;;;;;10.05;1.30;;;;;;;22.00;47.70;101216.94;16115105;19;131055;-57
2023/08/28 17:48:54;;;;;;;7.45;1.27;;;;;;;22.03;47.48;101221.97;16112988;19;129538;-61
2023/08/28 17:54:16;;;;;;;7.45;1.55;;;;;;;22.07;47.94;101227.88;16112257;19;131220;-59
2023/08/28 17:59:38;;;;;;;8.88;1.50;;;;;;;22.11;47.89;101221.53;16111220;19;130895;-59
2023/08/28 18:05:01;;;;;;;6.45;1.15;;;;;;;22.14;47.56;101225.72;16118561;19;130981;-57
2023/08/28 18:10:23;;;;;;;5.30;1.25;;;;;;;22.16;47.76;101217.09;16112809;19;129210;-59
2023/08/28 18:15:46;;;;;;;4.93;1.17;;;;;;;22.18;47.94;101209.31;16110866;19;130250;-58
2023/08/28 18:21:08;;;;;;;3.60;1.15;;;;;;;22.20;47.81;101215.47;16120070;19;130072;-60
2023/08/28 18:26:30;;;;;;;5.75;1.00;;;;;;;22.21;47.55;101226.41;16124245;19;130309;-57
2023/08/28 18:31:52;;;;;;;4.70;1.10;;;;;;;22.22;47.71;101227.22;16125778;19;129896;-54
2023/08/28 18:37:14;;;;;;;3.72;1.00;;;;;;;22.25;47.87;101237.84;16127248;19;131106;-56
2023/08/28 18:42:37;;;;;;;8.65;1.55;;;;;;;22.24;47.83;101234.22;16124544;19;129644;-58
2023/08/28 18:47:59;;;;;;;8.43;1.52;;;;;;;22.23;47.83;101238.09;16124132;19;129914;-60
2023/08/28 18:53:21;;;;;;;5.32;0.88;;;;;;;22.24;47.85;101238.97;16125024;19;131603;-67
2023/08/28 18:58:43;;;;;;;6.55;1.20;;;;;;;22.25;47.93;101240.66;16124775;19;129862;-61
2023/08/28 19:04:05;;;;;;;5.70;1.15;;;;;;;22.25;47.62;101251.78;16124610;19;129806;-60
2023/08/28 19:09:27;;;;;;;7.28;1.10;;;;;;;22.25;48.10;101249.00;16121699;19;129928;-56
2023/08/28 19:14:49;;;;;;;10.68;1.30;;;;;;;22.26;47.75;101261.84;16124924;19;129748;-59
2023/08/28 19:20:11;;;;;;;5.07;1.20;;;;;;;22.26;48.24;101259.88;16120110;19;131077;-57
2023/08/28 19:25:33;;;;;;;12.20;1.20;;;;;;;22.25;48.01;101266.56;16121390;19;130665;-58
2023/08/28 19:30:55;;;;;;;15.15;1.63;;;;;;;22.26;48.09;101270.19;16117893;19;129493;-57
2023/08/28 19:36:17;;;;;;;8.45;1.67;;;;;;;22.26;47.68;101273.81;16120424;19;129444;-58
2023/08/28 19:41:39;;;;;;;6.35;1.42;;;;;;;22.28;47.95;101276.31;16119772;19;130602;-58
2023/08/28 19:47:01;;;;;;;13.15;1.58;;;;;;;22.28;48.03;101287.47;16121917;19;133286;-62
2023/08/28 19:52:24;;;;;;;10.98;1.30;;;;;;;22.27;48.04;101292.22;16119874;19;129730;-58
2023/08/28 19:57:46;;;;;;;18.75;1.60;;;;;;;22.26;48.31;101295.28;16118849;19;135168;-59
2023/08/28 20:03:08;;;;;;;10.25;1.40;;;;;;;22.25;48.25;101291.63;16117402;19;129531;-59
2023/08/28 20:08:31;;;;;;;10.48;1.02;;;;;;;22.25;48.35;101290.81;16121056;19;129813;-59
2023/08/28 20:13:53;;;;;;;10.95;1.13;;;;;;;22.25;48.10;101288.03;16119899;19;131399;-59
2023/08/28 20:19:16;;;;;;;8.95;1.10;;;;;;;22.23;48.24;101293.84;16119369;19;129759;-60
2023/08/28 20:24:38;;;;;;;12.77;1.33;;;;;;;22.22;48.25;101288.53;16112463;19;129779;-60
2023/08/28 20:30:00;;;;;;;4.43;1.10;;;;;;;22.22;48.35;101288.53;16109605;19;129561;-60
2023/08/28 20:35:22;;;;;;;6.80;1.15;;;;;;;22.22;48.31;101288.53;16111751;19;129832;-59
2023/08/28 20:40:48;;;;;;;12.77;1.23;;;;;;;22.23;48.39;101279.06;16110826;19;130235;-60
2023/08/28 20:46:10;;;;;;;9.77;1.05;;;;;;;22.19;48.37;101281.53;16104914;19;130531;-59
2023/08/28 20:51:33;;;;;;;16.80;1.50;;;;;;;22.20;48.50;101274.00;16110050;19;129640;-60
2023/08/28 20:56:55;;;;;;;12.98;1.30;;;;;;;22.18;48.47;101271.47;16109841;19;130063;-58
2023/08/28 21:02:17;;;;;;;6.25;0.88;;;;;;;22.18;48.37;101267.81;16108417;19;129208;-61
2023/08/28 21:07:38;;;;;;;3.83;1.10;;;;;;;22.18;48.62;101265.03;16110405;19;131055;-60
2023/08/28 21:13:00;;;;;;;9.30;1.08;;;;;;;22.18;48.54;101256.69;16104815;19;133436;-66
2023/08/28 21:18:22;;;;;;;10.27;1.25;;;;;;;22.19;49.03;101261.16;16108849;19;130299;-68
2023/08/28 21:23:45;;;;;;;9.40;0.93;;;;;;;22.17;48.62;101249.44;16105249;19;131243;-61
2023/08/28 21:29:07;;;;;;;19.13;1.73;;;;;;;22.17;48.57;101255.00;15955199;19;2973935;-65
2023/08/28 21:34:28;;;;;;;10.77;1.30;;;;;;;22.20;48.87;101243.34;16108438;19;129984;-69
2023/08/28 21:39:50;;;;;;;8.98;1.52;;;;;;;22.19;48.99;101250.00;16108927;19;131749;-63
2023/08/28 21:45:12;;;;;;;10.95;1.40;;;;;;;22.18;48.85;101239.97;16112133;19;130176;-60
2023/08/28 21:50:36;;;;;;;20.00;1.80;;;;;;;22.17;48.87;101246.63;16111860;19;130555;-60
2023/08/28 21:55:58;;;;;;;8.32;1.38;;;;;;;22.15;49.28;101246.91;16104132;19;129730;-60
2023/08/28 22:01:20;;;;;;;17.83;1.73;;;;;;;22.15;48.73;101237.72;16111605;19;129366;-60
2023/08/28 22:06:42;;;;;;;15.63;1.70;;;;;;;22.13;48.99;101237.97;16112284;19;129592;-60
2023/08/28 22:12:04;;;;;;;10.73;1.98;;;;;;;22.10;48.97;101231.00;16109367;19;130409;-58
2023/08/28 22:17:27;;;;;;;10.30;1.58;;;;;;;22.10;49.01;101235.69;16107511;19;129947;-58
2023/08/28 22:22:49;;;;;;;11.20;1.55;;;;;;;22.08;49.09;101230.41;16107705;19;130664;-59
2023/08/28 22:28:12;;;;;;;11.45;1.30;;;;;;;22.07;49.00;101230.69;16107223;19;129429;-59
2023/08/28 22:33:34;;;;;;;11.52;2.45;;;;;;;22.06;48.96;101224.25;16105407;19;130952;-59
2023/08/28 22:38:56;;;;;;;13.93;2.20;;;;;;;22.05;48.91;101233.72;16110386;19;130083;-58
2023/08/28 22:44:18;;;;;;;20.90;2.13;;;;;;;22.04;49.21;101226.44;16111474;19;129464;-59
2023/08/28 22:49:40;;;;;;;12.57;1.52;;;;;;;22.03;49.06;101227.56;16105781;19;131371;-59
2023/08/28 22:55:03;;;;;;;13.00;1.98;;;;;;;22.02;49.06;101217.53;16104777;19;129396;-59
2023/08/28 23:00:25;;;;;;;9.05;1.75;;;;;;;22.01;48.82;101217.78;16105823;19;130271;-59
2023/08/28 23:05:48;;;;;;;13.10;1.88;;;;;;;22.00;49.19;101218.88;16111714;19;130268;-59
2023/08/28 23:11:09;;;;;;;9.02;2.13;;;;;;;21.97;49.06;101223.88;16121848;19;130588;-59
2023/08/28 23:16:32;;;;;;;8.88;1.42;;;;;;;21.96;49.06;101224.13;16124038;19;130993;-59
2023/08/28 23:21:54;;;;;;;12.88;1.83;;;;;;;21.94;49.04;101216.06;16122372;19;129586;-59
2023/08/28 23:27:19;;;;;;;7.82;1.67;;;;;;;21.92;49.01;101222.97;16118063;19;130810;-59
2023/08/28 23:32:41;;;;;;;9.23;1.65;;;;;;;21.91;48.99;101218.53;16121159;19;130352;-59
2023/08/28 23:38:04;;;;;;;6.93;1.38;;;;;;;21.88;48.60;101216.25;16118788;19;131807;-59
2023/08/28 23:43:26;;;;;;;9.52;1.45;;;;;;;21.87;48.93;101211.78;16119191;19;130722;-61
2023/08/28 23:48:48;;;;;;;8.90;1.67;;;;;;;21.85;48.92;101203.69;16119176;19;130385;-59
2023/08/28 23:54:10;;;;;;;7.32;1.85;;;;;;;21.82;48.58;101196.69;16118277;19;129032;-62
2023/08/28 23:59:32;;;;;;;5.43;1.45;;;;;;;21.81;48.86;101195.00;16119791;19;131019;-60
